| time (UTC) | temp C | wind direction | speed KPH | gust KPH | rain 1hr cm | rain 24hr cm | rain mn cm | humidity % | barometer mb |
| 20260505040056 | 17 | 0 | 0.0 | 0.0 | 0.00 | 0.00 | 0.00 | 70 | 1009.9 |
| 20260505034550 | 18 | 0 | 0.0 | 0.0 | 0.00 | 0.00 | 0.00 | 69 | 1009.9 |
| 20260505033049 | 18 | 0 | 0.0 | 0.0 | 0.00 | 0.00 | 0.00 | 68 | 1010.0 |
| 20260505031551 | 18 | 0 | 0.0 | 1.6 | 0.00 | 0.00 | 0.00 | 67 | 1009.8 |
| 20260505030109 | 18 | 0 | 0.0 | 1.6 | 0.00 | 0.00 | 0.00 | 66 | 1009.6 |
| 20260505024550 | 19 | 0 | 0.0 | 1.6 | 0.00 | 0.00 | 0.00 | 65 | 1009.5 |
| 20260505023047 | 19 | 0 | 0.0 | 1.6 | 0.00 | 0.00 | 0.00 | 65 | 1009.5 |
| 20260505021551 | 20 | 0 | 0.0 | 1.6 | 0.00 | 0.00 | 0.00 | 64 | 1009.2 |
| 20260505020050 | 20 | 0 | 0.0 | 0.0 | 0.00 | 0.00 | 0.00 | 62 | 1009.3 |
| 20260505014603 | 21 | 0 | 0.0 | 1.6 | 0.00 | 0.00 | 0.00 | 61 | 1009.2 |
| 20260505013053 | 21 | 0 | 0.0 | 1.6 | 0.00 | 0.00 | 0.00 | 61 | 1008.7 |
| 20260505011552 | 21 | 0 | 0.0 | 0.0 | 0.00 | 0.00 | 0.00 | 59 | 1008.7 |
| 20260505010055 | 22 | 0 | 0.0 | 0.0 | 0.00 | 0.00 | 0.00 | 57 | 1008.7 |
| 20260505004551 | 22 | 0 | 0.0 | 1.6 | 0.00 | 0.00 | 0.00 | 55 | 1008.9 |
| 20260505003057 | 23 | 0 | 0.0 | 1.6 | 0.00 | 0.00 | 0.00 | 54 | 1008.7 |
| 20260505001550 | 23 | 0 | 0.0 | 3.2 | 0.00 | 0.00 | 0.00 | 51 | 1008.5 |
| 20260505000056 | 24 | 0 | 0.0 | 9.7 | 0.00 | 0.00 | 0.00 | 50 | 1008.7 |
| 20260504234551 | 24 | 0 | 1.6 | 8.0 | 0.00 | 0.00 | 0.00 | 48 | 1008.7 |
| 20260504233050 | 25 | 227 | 1.6 | 8.0 | 0.00 | 0.00 | 0.00 | 47 | 1009.0 |
| 20260504231553 | 25 | 219 | 1.6 | 4.8 | 0.00 | 0.00 | 0.00 | 48 | 1009.5 |
| 20260504230052 | 25 | 221 | 0.0 | 6.4 | 0.00 | 0.00 | 0.00 | 46 | 1009.6 |
| 20260504224547 | 25 | 171 | 3.2 | 8.0 | 0.00 | 0.00 | 0.00 | 45 | 1009.7 |
| 20260504223104 | 25 | 205 | 3.2 | 14.5 | 0.00 | 0.00 | 0.00 | 45 | 1009.7 |
| 20260504221548 | 25 | 144 | 1.6 | 9.7 | 0.00 | 0.00 | 0.00 | 45 | 1009.8 |
| 20260504220051 | 25 | 221 | 1.6 | 14.5 | 0.00 | 0.00 | 0.00 | 46 | 1009.9 |
| 20260504214552 | 25 | 221 | 3.2 | 14.5 | 0.00 | 0.00 | 0.00 | 44 | 1010.1 |
| 20260504213047 | 25 | 147 | 3.2 | 16.1 | 0.00 | 0.00 | 0.00 | 46 | 1010.2 |
| 20260504211633 | 25 | 213 | 3.2 | 11.3 | 0.00 | 0.00 | 0.00 | 45 | 1010.4 |
| 20260504210054 | 25 | 215 | 1.6 | 14.5 | 0.00 | 0.00 | 0.00 | 45 | 1010.6 |
| 20260504204550 | 25 | 114 | 3.2 | 12.9 | 0.00 | 0.00 | 0.00 | 44 | 1010.9 |
| 20260504203057 | 25 | 126 | 1.6 | 11.3 | 0.00 | 0.00 | 0.00 | 45 | 1011.3 |
| 20260504201557 | 25 | 0 | 1.6 | 9.7 | 0.00 | 0.00 | 0.00 | 44 | 1011.5 |
| 20260504200053 | 26 | 0 | 1.6 | 17.7 | 0.00 | 0.00 | 0.00 | 43 | 1011.7 |
| 20260504194551 | 25 | 238 | 4.8 | 16.1 | 0.00 | 0.00 | 0.00 | 42 | 1011.9 |
| 20260504193051 | 26 | 190 | 1.6 | 9.7 | 0.00 | 0.00 | 0.00 | 43 | 1012.1 |
| 20260504191606 | 25 | 234 | 1.6 | 11.3 | 0.00 | 0.00 | 0.00 | 44 | 1012.3 |
| 20260504190104 | 25 | 173 | 1.6 | 11.3 | 0.00 | 0.00 | 0.00 | 47 | 1012.6 |
| 20260504184554 | 25 | 255 | 1.6 | 11.3 | 0.00 | 0.00 | 0.00 | 46 | 1012.8 |
| 20260504183048 | 25 | 167 | 3.2 | 9.7 | 0.00 | 0.00 | 0.00 | 47 | 1013.0 |
| 20260504181559 | 24 | 135 | 1.6 | 12.9 | 0.00 | 0.00 | 0.00 | 47 | 1013.1 |
| 20260504180052 | 24 | 128 | 4.8 | 14.5 | 0.00 | 0.00 | 0.00 | 48 | 1013.2 |
| 20260504174553 | 23 | 195 | 1.6 | 11.3 | 0.00 | 0.00 | 0.00 | 48 | 1013.3 |
| 20260504173055 | 23 | 0 | 3.2 | 16.1 | 0.00 | 0.00 | 0.00 | 47 | 1013.6 |
| 20260504171554 | 23 | 0 | 3.2 | 16.1 | 0.00 | 0.00 | 0.00 | 50 | 1013.8 |
| 20260504081553 | 15 | 0 | 0.0 | 3.2 | 0.00 | 0.00 | 0.00 | 73 | 1014.4 |
| 20260504044550 | 17 | 205 | 0.0 | 3.2 | 0.00 | 0.00 | 0.00 | 68 | 1015.4 |
| 20260504043100 | 17 | 0 | 0.0 | 3.2 | 0.00 | 0.00 | 0.00 | 68 | 1015.5 |
| 20260504041549 | 17 | 0 | 0.0 | 1.6 | 0.00 | 0.00 | 0.00 | 68 | 1015.7 |
| 20260504040126 | 17 | 0 | 0.0 | 3.2 | 0.00 | 0.00 | 0.00 | 68 | 1015.8 |